Time;durP1;ratioP1;P1;durP2;ratioP2;P2;SDS_P1;SDS_P2;PMS_P1;PMS_P2;Temp;Humidity;BMP_temperature;BMP_pressure;BME280_temperature;BME280_humidity;BME280_pressure;Samples;Min_cycle;Max_cycle;Signal;HPM_P1;HPM_P2
2023/08/06 00:06:49;;;;;;;7.03;3.80;;;;;;;25.17;100.00;100242.97;20891808;28;20053;-70
2023/08/06 00:17:13;;;;;;;9.88;4.80;;;;;;;25.11;100.00;100248.69;20816028;28;20076;-70
2023/08/06 00:27:35;;;;;;;11.43;5.63;;;;;;;25.69;100.00;100248.31;20832358;28;20063;-70
2023/08/06 00:38:00;;;;;;;10.05;5.40;;;;;;;25.31;100.00;100262.03;20803816;28;20079;-70
2023/08/06 00:48:23;;;;;;;8.90;4.40;;;;;;;25.03;100.00;100264.44;20816321;28;20577;-70
2023/08/06 00:58:48;;;;;;;8.48;4.30;;;;;;;24.52;100.00;100259.81;20816634;28;20095;-70
2023/08/06 01:09:25;;;;;;;6.63;3.92;;;;;;;24.42;100.00;100272.88;20815488;28;20794;-70
2023/08/06 01:19:50;;;;;;;7.05;4.03;;;;;;;24.39;100.00;100278.44;20846218;28;20101;-70
2023/08/06 01:30:26;;;;;;;14.80;8.73;;;;;;;25.01;100.00;100274.44;20890875;28;20202;-70
2023/08/06 01:40:49;;;;;;;9.55;5.93;;;;;;;25.17;100.00;100267.28;20960117;28;20041;-70
2023/08/06 01:51:13;;;;;;;9.20;6.00;;;;;;;24.59;100.00;100269.38;20958475;28;20051;-70
2023/08/06 02:01:35;;;;;;;8.27;5.00;;;;;;;24.71;100.00;100270.56;20965472;28;20052;-70
2023/08/06 02:11:59;;;;;;;7.72;4.25;;;;;;;24.48;100.00;100280.69;20931624;28;20048;-70
2023/08/06 02:22:22;;;;;;;7.22;4.55;;;;;;;24.41;100.00;100276.56;20955202;28;20485;-70
2023/08/06 02:32:46;;;;;;;9.98;4.65;;;;;;;24.13;100.00;100278.81;20919264;28;20147;-70
2023/08/06 02:43:09;;;;;;;9.30;4.78;;;;;;;24.33;100.00;100294.06;20983203;28;20045;-69
2023/08/06 02:53:33;;;;;;;8.50;5.07;;;;;;;24.48;100.00;100294.19;20981670;28;20144;-70
2023/08/06 03:04:00;;;;;;;7.38;4.30;;;;;;;24.10;100.00;100305.91;20925148;28;20045;-69
2023/08/06 03:14:30;;;;;;;7.55;4.10;;;;;;;24.07;100.00;100315.03;20939830;28;20052;-70
2023/08/06 03:24:54;;;;;;;8.07;4.30;;;;;;;24.15;100.00;100320.09;20915891;28;20050;-70
2023/08/06 03:35:21;;;;;;;9.75;4.32;;;;;;;24.23;100.00;100318.78;20932740;28;20070;-70
2023/08/06 03:45:45;;;;;;;6.50;3.50;;;;;;;23.73;100.00;100344.50;20806057;28;20052;-70
2023/08/06 03:56:11;;;;;;;10.27;4.20;;;;;;;24.12;100.00;100348.06;20818592;28;20036;-70
2023/08/06 04:06:33;;;;;;;9.50;3.80;;;;;;;24.54;100.00;100347.88;20803745;28;20158;-70
2023/08/06 04:16:57;;;;;;;8.32;3.92;;;;;;;25.01;100.00;100347.38;20832191;28;20583;-70
2023/08/06 04:27:20;;;;;;;8.07;3.58;;;;;;;25.47;100.00;100355.84;20825555;28;20180;-70
2023/08/06 04:37:45;;;;;;;7.97;3.05;;;;;;;26.03;100.00;100345.59;20803791;28;20080;-70
2023/08/06 04:48:08;;;;;;;5.93;2.83;;;;;;;26.76;100.00;100351.44;20828215;28;20051;-70
2023/08/06 04:58:32;;;;;;;4.88;2.35;;;;;;;27.44;100.00;100339.22;20816266;28;20430;-70
2023/08/06 05:08:54;;;;;;;6.60;2.50;;;;;;;28.13;100.00;100353.00;20818360;28;20462;-70
2023/08/06 05:19:18;;;;;;;5.30;2.50;;;;;;;28.73;100.00;100349.16;20899484;28;20036;-70
2023/08/06 05:29:41;;;;;;;6.40;2.17;;;;;;;29.93;100.00;100360.81;20886101;28;20087;-71
2023/08/06 05:40:06;;;;;;;7.40;2.60;;;;;;;31.22;92.95;100359.44;20887417;28;20057;-70
2023/08/06 05:50:28;;;;;;;6.20;3.10;;;;;;;32.32;91.08;100365.31;20923245;28;20053;-70
2023/08/06 06:00:52;;;;;;;4.88;2.63;;;;;;;33.38;87.81;100365.63;20890534;28;20172;-70
2023/08/06 06:11:15;;;;;;;6.55;3.00;;;;;;;34.17;83.08;100373.25;20958484;28;20064;-70
2023/08/06 06:21:19;;;;;;;6.32;2.80;;;;;;;34.68;76.54;100386.03;20904597;28;20048;-71
2023/08/06 06:31:42;;;;;;;6.07;2.88;;;;;;;35.14;71.16;100388.19;20929976;28;20095;-70
2023/08/06 06:42:08;;;;;;;5.32;1.83;;;;;;;35.70;58.85;100385.66;20904861;28;20059;-70
2023/08/06 06:52:37;;;;;;;11.68;2.80;;;;;;;35.34;62.71;100378.09;20906334;28;20041;-69
2023/08/06 07:03:01;;;;;;;5.25;2.00;;;;;;;35.46;55.69;100386.06;20885070;28;20140;-69
2023/08/06 07:13:24;;;;;;;5.90;2.05;;;;;;;35.62;52.81;100379.97;20769214;28;20110;-69
2023/08/06 07:23:49;;;;;;;9.38;2.13;;;;;;;36.00;51.86;100384.56;20785915;28;20456;-69
2023/08/06 07:34:11;;;;;;;6.05;1.80;;;;;;;36.05;48.95;100387.72;20897817;28;20591;-69
2023/08/06 07:44:36;;;;;;;8.93;2.60;;;;;;;35.97;51.52;100393.97;20877883;28;20612;-69
2023/08/06 07:54:59;;;;;;;7.10;1.98;;;;;;;36.07;56.41;100399.47;20877392;28;20048;-69
2023/08/06 08:05:23;;;;;;;6.18;2.63;;;;;;;36.51;56.08;100413.50;20924834;28;20136;-69
2023/08/06 08:15:45;;;;;;;7.53;2.67;;;;;;;35.13;72.68;100401.03;20883613;28;20055;-70
2023/08/06 08:26:09;;;;;;;6.95;2.35;;;;;;;34.77;88.54;100407.19;20898972;28;20052;-69
2023/08/06 08:36:32;;;;;;;6.50;2.07;;;;;;;36.04;78.36;100418.97;20908825;28;20041;-68
2023/08/06 08:46:57;;;;;;;6.20;2.15;;;;;;;35.33;75.25;100412.94;20888198;28;20488;-69
2023/08/06 08:57:19;;;;;;;6.60;2.20;;;;;;;33.60;76.24;100412.94;20888817;28;20053;-68
2023/08/06 09:07:49;;;;;;;6.38;2.28;;;;;;;32.98;82.86;100428.28;20880439;28;20405;-68
2023/08/06 09:18:12;;;;;;;7.30;2.80;;;;;;;32.65;93.67;100429.16;20889171;28;20045;-68
2023/08/06 09:28:42;;;;;;;6.68;2.70;;;;;;;32.49;100.00;100426.84;20890880;28;20581;-68
2023/08/06 09:39:14;;;;;;;6.97;2.67;;;;;;;33.70;95.07;100423.94;20860649;28;20393;-68
2023/08/06 09:49:45;;;;;;;6.78;2.58;;;;;;;34.77;74.93;100434.63;20849788;28;20817;-68
2023/08/06 10:00:10;;;;;;;5.32;2.30;;;;;;;34.00;77.09;100432.28;20849469;28;20056;-68
2023/08/06 10:10:38;;;;;;;5.57;2.03;;;;;;;34.99;77.72;100426.13;20848212;28;20128;-68
2023/08/06 10:21:02;;;;;;;5.43;2.25;;;;;;;35.68;72.48;100452.72;20833905;28;20045;-68
2023/08/06 10:31:43;;;;;;;;;;;;;;;34.66;74.88;100446.50;20860517;28;20052;-69
2023/08/06 10:42:21;;;;;;;10.30;2.75;;;;;;;35.03;87.13;100454.19;20920695;28;19921;-68
2023/08/06 10:52:44;;;;;;;9.90;2.50;;;;;;;34.69;89.46;100462.72;20925735;28;20049;-68
2023/08/06 11:03:10;;;;;;;8.38;1.90;;;;;;;33.96;88.04;100468.31;20929099;28;20470;-68
2023/08/06 11:23:35;;;;;;;11.43;2.00;;;;;;;33.52;82.90;100472.09;20962489;27;20403;-66
2023/08/06 11:33:58;;;;;;;10.95;2.47;;;;;;;33.24;79.78;100470.81;20955845;28;20401;-66
2023/08/06 11:44:24;;;;;;;9.25;1.90;;;;;;;32.87;84.94;100470.22;20945438;28;20086;-66
2023/08/06 11:54:47;;;;;;;;;;;;;;;33.42;85.25;100469.25;20914452;28;20053;-67
2023/08/06 12:05:15;;;;;;;8.13;1.67;;;;;;;33.88;76.06;100459.88;20958132;28;19921;-67
2023/08/06 12:15:38;;;;;;;9.38;1.80;;;;;;;33.76;72.81;100456.31;20957851;28;20144;-67
2023/08/06 12:26:02;;;;;;;8.20;1.80;;;;;;;33.86;67.30;100460.03;20942706;28;20053;-67
2023/08/06 12:36:24;;;;;;;10.05;2.13;;;;;;;33.67;67.64;100448.00;20887202;28;20049;-68
2023/08/06 12:46:48;;;;;;;7.55;2.10;;;;;;;33.57;69.38;100470.69;20859988;28;20107;-68
2023/08/06 12:57:11;;;;;;;5.85;1.65;;;;;;;34.15;64.09;100462.94;20886237;28;20445;-67
2023/08/06 13:07:35;;;;;;;8.55;1.85;;;;;;;34.20;60.84;100452.44;20913611;28;20397;-68
2023/08/06 13:17:58;;;;;;;3.63;1.33;;;;;;;34.49;53.04;100444.44;20897070;28;20088;-67
2023/08/06 13:28:23;;;;;;;6.57;1.58;;;;;;;34.47;51.32;100443.69;20879514;28;20508;-68
2023/08/06 13:38:45;;;;;;;11.90;1.50;;;;;;;34.69;54.14;100451.72;20878492;28;20059;-67
2023/08/06 13:49:10;;;;;;;7.75;2.33;;;;;;;34.27;52.30;100444.59;20897551;28;20313;-67
2023/08/06 13:59:32;;;;;;;8.80;1.80;;;;;;;34.01;49.01;100427.66;20893266;28;20045;-68
2023/08/06 14:09:57;;;;;;;7.80;2.33;;;;;;;34.34;48.21;100443.03;20893315;28;20044;-69
2023/08/06 14:20:19;;;;;;;6.45;1.70;;;;;;;34.58;48.74;100442.75;20893805;28;20064;-68
2023/08/06 14:30:44;;;;;;;6.05;1.58;;;;;;;35.12;42.43;100431.38;20894305;28;20049;-68
2023/08/06 14:41:07;;;;;;;9.30;1.67;;;;;;;35.12;41.95;100420.38;20893314;28;20057;-68
2023/08/06 14:51:31;;;;;;;8.57;2.47;;;;;;;35.11;42.21;100418.69;20879067;28;20390;-68
2023/08/06 15:01:53;;;;;;;4.55;1.67;;;;;;;35.19;43.69;100425.16;20904385;28;20056;-68
2023/08/06 15:12:20;;;;;;;9.10;2.60;;;;;;;34.75;47.08;100432.00;20878101;28;20136;-68
2023/08/06 15:22:42;;;;;;;6.97;1.80;;;;;;;33.94;50.43;100429.19;20871830;28;20084;-68
2023/08/06 15:33:07;;;;;;;10.85;2.58;;;;;;;33.02;53.50;100437.97;20877524;28;20045;-69
2023/08/06 15:43:30;;;;;;;10.75;2.20;;;;;;;32.61;54.97;100430.44;20888351;28;20106;-68
2023/08/06 15:53:55;;;;;;;9.00;2.10;;;;;;;31.99;58.34;100442.63;20902985;28;20045;-67
2023/08/06 16:04:17;;;;;;;11.32;2.42;;;;;;;31.88;60.86;100458.13;20895167;28;20037;-68
2023/08/06 16:14:41;;;;;;;12.52;2.60;;;;;;;31.81;64.72;100456.84;20903260;28;20105;-68
2023/08/06 16:25:05;;;;;;;16.08;3.05;;;;;;;31.66;65.95;100458.91;20890409;28;20061;-68
2023/08/06 16:35:30;;;;;;;13.90;2.63;;;;;;;31.43;69.12;100476.16;20902517;28;20056;-68
2023/08/06 16:45:44;;;;;;;15.37;2.77;;;;;;;31.30;71.15;100472.59;20884116;28;20560;-68
2023/08/06 16:56:07;;;;;;;9.18;1.98;;;;;;;31.03;73.94;100479.09;20861872;28;20048;-68
2023/08/06 17:06:30;;;;;;;15.70;2.50;;;;;;;30.81;77.06;100478.91;20890566;28;20048;-69
2023/08/06 17:16:54;;;;;;;11.73;2.85;;;;;;;30.49;81.59;100473.94;20895084;28;20061;-67
2023/08/06 17:27:16;;;;;;;13.15;3.92;;;;;;;30.17;84.52;100494.41;20892653;28;20049;-67
2023/08/06 17:37:40;;;;;;;21.55;5.90;;;;;;;29.98;84.90;100494.81;20885424;28;20048;-69
2023/08/06 17:48:02;;;;;;;11.82;2.70;;;;;;;29.72;89.36;100501.13;20887064;28;20405;-67
2023/08/06 17:58:26;;;;;;;12.00;3.13;;;;;;;29.51;93.76;100510.75;20894961;28;20057;-68
2023/08/06 18:08:49;;;;;;;17.30;3.63;;;;;;;29.40;95.28;100516.03;20896227;28;20053;-68
2023/08/06 18:19:13;;;;;;;12.27;2.85;;;;;;;29.23;99.01;100519.81;20843653;28;20076;-68
2023/08/06 18:29:35;;;;;;;12.10;2.60;;;;;;;29.06;100.00;100525.50;20893963;28;20045;-67
2023/08/06 18:39:41;;;;;;;38.67;20.75;;;;;;;28.94;100.00;100527.16;20888816;28;20049;-68
2023/08/06 18:50:03;;;;;;;12.63;3.15;;;;;;;28.81;100.00;100547.97;20891085;28;20068;-67
2023/08/06 19:00:27;;;;;;;14.70;3.55;;;;;;;28.63;100.00;100547.22;20891103;28;20304;-68
2023/08/06 19:10:50;;;;;;;14.50;4.53;;;;;;;28.46;100.00;100564.59;20885406;28;20049;-68
2023/08/06 19:21:14;;;;;;;17.05;3.53;;;;;;;28.31;100.00;100549.22;20885061;28;20052;-67
2023/08/06 19:31:36;;;;;;;12.25;3.05;;;;;;;28.16;100.00;100546.59;20866750;28;20077;-69
2023/08/06 19:41:53;;;;;;;12.90;2.88;;;;;;;28.07;100.00;100545.25;20858364;28;20653;-67
2023/08/06 19:52:15;;;;;;;10.63;2.38;;;;;;;27.94;100.00;100539.69;20902353;28;20094;-67
2023/08/06 20:02:39;;;;;;;10.07;2.20;;;;;;;27.83;100.00;100541.31;20898254;28;20052;-67
2023/08/06 20:13:02;;;;;;;12.20;2.28;;;;;;;27.76;100.00;100544.34;20859920;28;20075;-68
2023/08/06 20:23:26;;;;;;;8.88;2.35;;;;;;;27.68;100.00;100522.25;20885288;28;20053;-67
2023/08/06 20:33:48;;;;;;;6.78;1.95;;;;;;;27.43;100.00;100502.91;20898773;28;20105;-68
2023/08/06 20:44:13;;;;;;;11.43;2.08;;;;;;;27.34;100.00;100527.84;20892187;28;20055;-68
2023/08/06 20:54:35;;;;;;;12.68;2.50;;;;;;;27.15;100.00;100529.84;20895001;28;20430;-68
2023/08/06 21:05:00;;;;;;;12.30;2.17;;;;;;;27.02;100.00;100521.56;20897434;28;20045;-69
2023/08/06 21:15:22;;;;;;;11.23;2.70;;;;;;;26.89;100.00;100526.78;20889843;28;20106;-68
2023/08/06 21:25:55;;;;;;;10.98;2.17;;;;;;;26.84;100.00;100515.31;20898652;28;20505;-68
2023/08/06 21:36:18;;;;;;;11.15;2.78;;;;;;;26.68;100.00;100508.97;20884764;28;20049;-68
2023/08/06 21:46:42;;;;;;;20.50;3.08;;;;;;;26.67;100.00;100519.88;20883793;28;20040;-68
2023/08/06 21:57:06;;;;;;;11.50;2.38;;;;;;;26.59;100.00;100512.16;20882354;28;20053;-68
2023/08/06 22:07:31;;;;;;;14.68;2.58;;;;;;;26.46;100.00;100500.25;20889323;28;20045;-68
2023/08/06 22:17:53;;;;;;;13.07;3.50;;;;;;;26.30;100.00;100505.63;20910772;28;20099;-68
2023/08/06 22:28:18;;;;;;;8.95;2.33;;;;;;;26.37;100.00;100495.34;20894023;28;20438;-68
2023/08/06 22:38:40;;;;;;;11.05;2.83;;;;;;;26.16;100.00;100492.78;20879558;28;20041;-68
2023/08/06 22:49:04;;;;;;;15.02;3.67;;;;;;;25.89;100.00;100478.00;20889863;28;20548;-68
2023/08/06 22:59:28;;;;;;;8.85;2.65;;;;;;;25.83;100.00;100485.56;20887948;28;20051;-69
2023/08/06 23:09:52;;;;;;;10.60;2.72;;;;;;;25.75;100.00;100491.38;20881615;28;20110;-68
2023/08/06 23:20:14;;;;;;;11.18;2.88;;;;;;;25.54;100.00;100498.72;20880505;28;20556;-68
2023/08/06 23:30:39;;;;;;;11.88;3.45;;;;;;;25.64;100.00;100482.94;20876734;28;20095;-68
2023/08/06 23:41:02;;;;;;;12.15;2.50;;;;;;;25.54;100.00;100474.38;20890484;28;20398;-69
2023/08/06 23:51:26;;;;;;;14.15;3.40;;;;;;;25.43;100.00;100482.16;20926962;28;20040;-69
